sensor_id;sensor_type;location;lat;lon;timestamp;pressure;altitude;pressure_sealevel;temperature;humidity
61408;BME280;47274;43.054;25.146;2023-07-09T00:01:16;95859.28;;;16.95;89.67
61408;BME280;47274;43.054;25.146;2023-07-09T00:03:43;95796.31;;;16.56;90.59
61408;BME280;47274;43.054;25.146;2023-07-09T00:06:10;95843.72;;;16.80;90.35
61408;BME280;47274;43.054;25.146;2023-07-09T00:08:42;95838.25;;;16.75;89.49
61408;BME280;47274;43.054;25.146;2023-07-09T00:11:09;95868.06;;;16.94;90.50
61408;BME280;47274;43.054;25.146;2023-07-09T00:13:35;95815.25;;;16.57;91.13
61408;BME280;47274;43.054;25.146;2023-07-09T00:16:11;95839.09;;;16.75;89.73
61408;BME280;47274;43.054;25.146;2023-07-09T00:18:38;95821.75;;;16.53;89.49
61408;BME280;47274;43.054;25.146;2023-07-09T00:21:04;95801.63;;;16.40;89.23
61408;BME280;47274;43.054;25.146;2023-07-09T00:23:29;95832.56;;;16.56;89.21
61408;BME280;47274;43.054;25.146;2023-07-09T00:25:55;95838.41;;;16.58;89.69
61408;BME280;47274;43.054;25.146;2023-07-09T00:28:21;95866.25;;;16.79;89.74
61408;BME280;47274;43.054;25.146;2023-07-09T00:30:48;95854.84;;;16.66;89.91
61408;BME280;47274;43.054;25.146;2023-07-09T00:33:16;95846.69;;;16.54;89.47
61408;BME280;47274;43.054;25.146;2023-07-09T00:35:45;95866.13;;;16.73;88.90
61408;BME280;47274;43.054;25.146;2023-07-09T00:38:20;95815.13;;;16.35;89.72
61408;BME280;47274;43.054;25.146;2023-07-09T00:41:15;95790.84;;;16.14;89.65
61408;BME280;47274;43.054;25.146;2023-07-09T00:43:48;95832.03;;;16.46;89.72
61408;BME280;47274;43.054;25.146;2023-07-09T00:49:16;95828.53;;;16.39;90.11
61408;BME280;47274;43.054;25.146;2023-07-09T00:51:46;95831.91;;;16.40;89.92
61408;BME280;47274;43.054;25.146;2023-07-09T00:54:26;95861.53;;;16.60;90.29
61408;BME280;47274;43.054;25.146;2023-07-09T00:56:59;95859.28;;;16.57;90.03
61408;BME280;47274;43.054;25.146;2023-07-09T00:59:27;95856.09;;;16.55;90.21
61408;BME280;47274;43.054;25.146;2023-07-09T01:01:55;95849.63;;;16.51;90.61
61408;BME280;47274;43.054;25.146;2023-07-09T01:04:24;95816.16;;;16.26;90.64
61408;BME280;47274;43.054;25.146;2023-07-09T01:06:53;95844.97;;;16.46;89.68
61408;BME280;47274;43.054;25.146;2023-07-09T01:09:22;95878.19;;;16.66;89.86
61408;BME280;47274;43.054;25.146;2023-07-09T01:11:48;95818.13;;;16.24;90.11
61408;BME280;47274;43.054;25.146;2023-07-09T01:14:19;95823.91;;;16.26;89.68
61408;BME280;47274;43.054;25.146;2023-07-09T01:16:49;95885.03;;;16.58;89.38
61408;BME280;47274;43.054;25.146;2023-07-09T01:19:23;95851.38;;;16.35;90.01
61408;BME280;47274;43.054;25.146;2023-07-09T01:21:59;95875.59;;;16.43;90.60
61408;BME280;47274;43.054;25.146;2023-07-09T01:25:03;95844.03;;;16.24;90.01
61408;BME280;47274;43.054;25.146;2023-07-09T01:27:40;95891.25;;;16.49;90.45
61408;BME280;47274;43.054;25.146;2023-07-09T01:30:13;95855.00;;;16.26;90.41
61408;BME280;47274;43.054;25.146;2023-07-09T01:32:44;95877.63;;;16.32;90.09
61408;BME280;47274;43.054;25.146;2023-07-09T01:35:13;95852.03;;;16.15;90.20
61408;BME280;47274;43.054;25.146;2023-07-09T01:37:41;95854.41;;;16.16;89.75
61408;BME280;47274;43.054;25.146;2023-07-09T01:40:09;95855.56;;;16.14;89.56
61408;BME280;47274;43.054;25.146;2023-07-09T01:42:36;95890.50;;;16.41;89.54
61408;BME280;47274;43.054;25.146;2023-07-09T01:45:06;95839.19;;;15.98;89.13
61408;BME280;47274;43.054;25.146;2023-07-09T01:47:42;95807.75;;;15.78;88.80
61408;BME280;47274;43.054;25.146;2023-07-09T01:50:14;95906.75;;;16.34;87.58
61408;BME280;47274;43.054;25.146;2023-07-09T01:52:43;95813.75;;;15.79;88.59
61408;BME280;47274;43.054;25.146;2023-07-09T01:55:14;95871.94;;;16.14;87.28
61408;BME280;47274;43.054;25.146;2023-07-09T01:57:42;95840.19;;;15.89;87.18
61408;BME280;47274;43.054;25.146;2023-07-09T02:00:15;95856.50;;;15.98;87.45
61408;BME280;47274;43.054;25.146;2023-07-09T02:02:44;95842.63;;;15.91;87.16
61408;BME280;47274;43.054;25.146;2023-07-09T02:05:14;95815.59;;;15.70;86.52
61408;BME280;47274;43.054;25.146;2023-07-09T02:19:16;95911.88;;;16.43;85.17
61408;BME280;47274;43.054;25.146;2023-07-09T02:21:41;95875.59;;;16.20;85.67
61408;BME280;47274;43.054;25.146;2023-07-09T02:24:10;95901.72;;;16.33;85.62
61408;BME280;47274;43.054;25.146;2023-07-09T02:29:30;95825.06;;;15.78;85.61
61408;BME280;47274;43.054;25.146;2023-07-09T02:32:28;95917.38;;;16.40;85.35
61408;BME280;47274;43.054;25.146;2023-07-09T02:38:08;95857.38;;;15.90;86.14
61408;BME280;47274;43.054;25.146;2023-07-09T02:40:43;95836.09;;;15.72;86.77
61408;BME280;47274;43.054;25.146;2023-07-09T02:43:12;95826.56;;;15.64;86.45
61408;BME280;47274;43.054;25.146;2023-07-09T02:45:44;95931.09;;;16.25;86.61
61408;BME280;47274;43.054;25.146;2023-07-09T02:48:14;95828.22;;;15.57;87.09
61408;BME280;47274;43.054;25.146;2023-07-09T02:50:45;95904.28;;;16.10;86.86
61408;BME280;47274;43.054;25.146;2023-07-09T02:53:29;95838.53;;;15.73;87.51
61408;BME280;47274;43.054;25.146;2023-07-09T02:56:05;95852.78;;;15.61;88.11
61408;BME280;47274;43.054;25.146;2023-07-09T02:58:34;95833.16;;;15.44;88.72
61408;BME280;47274;43.054;25.146;2023-07-09T03:01:08;95874.94;;;15.63;86.33
61408;BME280;47274;43.054;25.146;2023-07-09T03:03:35;95831.53;;;15.43;86.88
61408;BME280;47274;43.054;25.146;2023-07-09T03:06:12;95858.94;;;15.60;86.89
61408;BME280;47274;43.054;25.146;2023-07-09T03:09:13;95932.31;;;16.06;86.60
61408;BME280;47274;43.054;25.146;2023-07-09T03:12:05;95857.19;;;15.52;86.89
61408;BME280;47274;43.054;25.146;2023-07-09T03:14:39;95825.19;;;15.45;87.13
61408;BME280;47274;43.054;25.146;2023-07-09T03:17:12;95836.84;;;15.49;85.95
61408;BME280;47274;43.054;25.146;2023-07-09T03:19:38;95835.69;;;15.52;86.23
61408;BME280;47274;43.054;25.146;2023-07-09T03:22:06;95860.56;;;15.69;86.25
61408;BME280;47274;43.054;25.146;2023-07-09T03:24:32;95920.94;;;16.16;87.11
61408;BME280;47274;43.054;25.146;2023-07-09T03:26:58;95865.63;;;15.85;87.11
61408;BME280;47274;43.054;25.146;2023-07-09T03:29:28;95886.09;;;16.03;86.27
61408;BME280;47274;43.054;25.146;2023-07-09T03:31:54;95864.00;;;15.84;85.97
61408;BME280;47274;43.054;25.146;2023-07-09T03:34:20;95913.47;;;16.21;85.80
61408;BME280;47274;43.054;25.146;2023-07-09T03:36:49;95853.47;;;15.86;85.48
61408;BME280;47274;43.054;25.146;2023-07-09T03:39:18;95888.72;;;16.18;85.13
61408;BME280;47274;43.054;25.146;2023-07-09T03:41:44;95927.19;;;16.52;85.18
61408;BME280;47274;43.054;25.146;2023-07-09T03:44:13;95849.47;;;16.06;84.88
61408;BME280;47274;43.054;25.146;2023-07-09T03:46:47;95852.53;;;16.10;84.38
61408;BME280;47274;43.054;25.146;2023-07-09T03:49:13;95895.19;;;16.45;84.09
61408;BME280;47274;43.054;25.146;2023-07-09T03:51:39;95925.09;;;16.71;84.57
61408;BME280;47274;43.054;25.146;2023-07-09T03:54:05;95850.63;;;16.27;83.51
61408;BME280;47274;43.054;25.146;2023-07-09T03:56:32;95858.97;;;16.37;84.19
61408;BME280;47274;43.054;25.146;2023-07-09T04:01:35;95925.28;;;16.92;83.10
61408;BME280;47274;43.054;25.146;2023-07-09T04:04:01;95941.31;;;17.11;83.20
61408;BME280;47274;43.054;25.146;2023-07-09T04:06:27;95918.41;;;16.99;81.81
61408;BME280;47274;43.054;25.146;2023-07-09T04:08:56;95870.81;;;16.77;81.81
61408;BME280;47274;43.054;25.146;2023-07-09T04:11:27;95865.91;;;16.83;81.59
61408;BME280;47274;43.054;25.146;2023-07-09T04:14:11;95922.56;;;17.23;81.76
61408;BME280;47274;43.054;25.146;2023-07-09T04:16:37;95937.47;;;17.36;80.86
61408;BME280;47274;43.054;25.146;2023-07-09T04:19:02;95913.25;;;17.29;80.55
61408;BME280;47274;43.054;25.146;2023-07-09T04:21:28;95935.50;;;17.53;79.93
61408;BME280;47274;43.054;25.146;2023-07-09T04:23:57;95963.19;;;17.75;80.44
61408;BME280;47274;43.054;25.146;2023-07-09T04:26:32;95958.25;;;17.81;80.88
61408;BME280;47274;43.054;25.146;2023-07-09T04:28:58;95939.66;;;17.77;79.74
61408;BME280;47274;43.054;25.146;2023-07-09T04:31:24;95931.50;;;17.80;78.95
61408;BME280;47274;43.054;25.146;2023-07-09T04:33:49;95933.03;;;17.74;78.58
61408;BME280;47274;43.054;25.146;2023-07-09T04:36:18;95961.91;;;18.01;78.83
61408;BME280;47274;43.054;25.146;2023-07-09T04:38:46;95881.22;;;17.51;77.85
61408;BME280;47274;43.054;25.146;2023-07-09T04:41:12;95880.16;;;17.61;77.69
61408;BME280;47274;43.054;25.146;2023-07-09T04:43:38;95953.03;;;18.10;74.94
61408;BME280;47274;43.054;25.146;2023-07-09T04:46:03;95891.97;;;17.78;76.97
61408;BME280;47274;43.054;25.146;2023-07-09T04:48:29;95932.91;;;18.12;76.10
61408;BME280;47274;43.054;25.146;2023-07-09T04:50:58;95972.75;;;18.41;75.72
61408;BME280;47274;43.054;25.146;2023-07-09T04:53:28;95922.94;;;18.16;75.73
61408;BME280;47274;43.054;25.146;2023-07-09T04:55:53;95892.56;;;17.95;77.06
61408;BME280;47274;43.054;25.146;2023-07-09T05:01:13;95931.56;;;18.38;76.05
61408;BME280;47274;43.054;25.146;2023-07-09T05:03:38;95949.53;;;18.76;76.42
61408;BME280;47274;43.054;25.146;2023-07-09T05:06:05;95902.84;;;18.46;75.93
61408;BME280;47274;43.054;25.146;2023-07-09T05:08:31;95908.91;;;18.53;75.44
61408;BME280;47274;43.054;25.146;2023-07-09T05:10:58;95955.75;;;19.03;74.72
61408;BME280;47274;43.054;25.146;2023-07-09T05:13:24;95981.59;;;19.32;75.31
61408;BME280;47274;43.054;25.146;2023-07-09T05:15:50;95970.63;;;19.37;75.02
61408;BME280;47274;43.054;25.146;2023-07-09T05:18:20;95916.00;;;19.09;74.73
61408;BME280;47274;43.054;25.146;2023-07-09T05:20:52;95927.34;;;19.29;73.38
61408;BME280;47274;43.054;25.146;2023-07-09T05:23:23;95913.94;;;19.32;73.88
61408;BME280;47274;43.054;25.146;2023-07-09T05:26:02;95909.38;;;19.41;73.78
61408;BME280;47274;43.054;25.146;2023-07-09T05:28:35;95997.50;;;20.07;72.56
61408;BME280;47274;43.054;25.146;2023-07-09T05:31:12;95897.44;;;19.53;74.10
61408;BME280;47274;43.054;25.146;2023-07-09T05:33:49;95917.81;;;19.78;72.75
61408;BME280;47274;43.054;25.146;2023-07-09T05:36:28;95985.78;;;20.38;72.80
61408;BME280;47274;43.054;25.146;2023-07-09T05:38:55;96001.69;;;20.56;71.02
61408;BME280;47274;43.054;25.146;2023-07-09T05:41:22;95980.38;;;20.46;71.31
61408;BME280;47274;43.054;25.146;2023-07-09T05:43:50;95994.06;;;20.61;72.02
61408;BME280;47274;43.054;25.146;2023-07-09T05:46:16;95957.31;;;20.43;71.17
61408;BME280;47274;43.054;25.146;2023-07-09T05:48:42;95977.84;;;20.59;71.47
61408;BME280;47274;43.054;25.146;2023-07-09T05:51:08;95972.81;;;20.71;70.76
61408;BME280;47274;43.054;25.146;2023-07-09T05:53:41;95943.94;;;20.66;70.02
61408;BME280;47274;43.054;25.146;2023-07-09T05:56:07;95970.06;;;20.92;70.95
61408;BME280;47274;43.054;25.146;2023-07-09T05:58:33;95997.94;;;21.12;70.48
61408;BME280;47274;43.054;25.146;2023-07-09T06:00:59;95946.34;;;20.74;70.19
61408;BME280;47274;43.054;25.146;2023-07-09T06:03:26;95991.13;;;21.04;69.84
61408;BME280;47274;43.054;25.146;2023-07-09T06:05:52;95965.66;;;20.99;68.89
61408;BME280;47274;43.054;25.146;2023-07-09T06:08:21;95964.63;;;21.20;68.83
61408;BME280;47274;43.054;25.146;2023-07-09T06:10:58;95993.34;;;21.27;68.53
61408;BME280;47274;43.054;25.146;2023-07-09T06:13:25;95931.91;;;21.11;66.32
61408;BME280;47274;43.054;25.146;2023-07-09T06:15:52;95939.91;;;21.29;68.83
61408;BME280;47274;43.054;25.146;2023-07-09T06:18:19;95937.94;;;21.38;68.84
61408;BME280;47274;43.054;25.146;2023-07-09T06:20:50;95989.44;;;21.96;66.44
61408;BME280;47274;43.054;25.146;2023-07-09T06:23:16;95980.78;;;22.02;67.84
61408;BME280;47274;43.054;25.146;2023-07-09T06:25:43;95981.94;;;22.13;66.36
61408;BME280;47274;43.054;25.146;2023-07-09T06:28:22;95977.13;;;22.10;68.00
61408;BME280;47274;43.054;25.146;2023-07-09T06:30:51;95990.84;;;22.50;68.09
61408;BME280;47274;43.054;25.146;2023-07-09T06:33:18;95989.03;;;22.51;64.86
61408;BME280;47274;43.054;25.146;2023-07-09T06:35:53;96005.88;;;22.61;65.05
61408;BME280;47274;43.054;25.146;2023-07-09T06:38:20;96007.41;;;22.76;66.61
61408;BME280;47274;43.054;25.146;2023-07-09T06:40:46;95974.19;;;22.76;65.80
61408;BME280;47274;43.054;25.146;2023-07-09T06:43:12;96010.44;;;22.73;64.90
61408;BME280;47274;43.054;25.146;2023-07-09T06:45:55;95968.50;;;22.54;64.90
61408;BME280;47274;43.054;25.146;2023-07-09T06:48:28;95940.63;;;22.66;64.90
61408;BME280;47274;43.054;25.146;2023-07-09T06:51:02;95975.13;;;22.88;65.30
61408;BME280;47274;43.054;25.146;2023-07-09T06:53:32;95951.81;;;22.80;61.46
61408;BME280;47274;43.054;25.146;2023-07-09T06:55:58;95935.38;;;22.41;63.22
61408;BME280;47274;43.054;25.146;2023-07-09T06:58:27;95977.31;;;22.91;62.84
61408;BME280;47274;43.054;25.146;2023-07-09T07:00:54;95999.88;;;23.17;60.91
61408;BME280;47274;43.054;25.146;2023-07-09T07:03:22;95997.66;;;23.46;65.21
61408;BME280;47274;43.054;25.146;2023-07-09T07:05:49;95970.34;;;23.35;62.99
61408;BME280;47274;43.054;25.146;2023-07-09T07:08:21;95980.53;;;23.44;59.06
61408;BME280;47274;43.054;25.146;2023-07-09T07:10:49;95995.09;;;23.39;59.28
61408;BME280;47274;43.054;25.146;2023-07-09T07:13:15;95946.78;;;23.10;61.19
61408;BME280;47274;43.054;25.146;2023-07-09T07:15:41;95983.69;;;23.52;59.32
61408;BME280;47274;43.054;25.146;2023-07-09T07:18:08;95982.19;;;23.63;62.84
61408;BME280;47274;43.054;25.146;2023-07-09T07:20:34;95975.06;;;23.70;57.15
61408;BME280;47274;43.054;25.146;2023-07-09T07:23:00;95949.09;;;23.62;58.52
61408;BME280;47274;43.054;25.146;2023-07-09T07:25:25;95909.31;;;23.10;60.59
61408;BME280;47274;43.054;25.146;2023-07-09T07:27:51;95958.31;;;23.89;61.32
61408;BME280;47274;43.054;25.146;2023-07-09T07:30:29;95975.22;;;24.12;60.90
61408;BME280;47274;43.054;25.146;2023-07-09T07:32:55;95973.75;;;24.16;59.92
61408;BME280;47274;43.054;25.146;2023-07-09T07:35:20;95965.88;;;24.34;61.11
61408;BME280;47274;43.054;25.146;2023-07-09T07:37:46;95936.66;;;24.31;59.88
61408;BME280;47274;43.054;25.146;2023-07-09T07:40:12;95962.25;;;24.77;60.94
61408;BME280;47274;43.054;25.146;2023-07-09T07:42:38;95960.13;;;24.86;59.12
61408;BME280;47274;43.054;25.146;2023-07-09T07:45:05;95895.84;;;24.65;59.42
61408;BME280;47274;43.054;25.146;2023-07-09T07:50:14;95966.91;;;24.64;57.59
61408;BME280;47274;43.054;25.146;2023-07-09T07:52:40;95949.50;;;24.51;55.59
61408;BME280;47274;43.054;25.146;2023-07-09T07:55:07;95976.31;;;24.95;55.86
61408;BME280;47274;43.054;25.146;2023-07-09T07:57:33;95968.09;;;24.91;55.91
61408;BME280;47274;43.054;25.146;2023-07-09T07:59:59;95968.34;;;24.90;56.52
61408;BME280;47274;43.054;25.146;2023-07-09T08:02:25;95964.44;;;24.92;53.77
61408;BME280;47274;43.054;25.146;2023-07-09T08:04:51;95973.38;;;25.03;56.95
61408;BME280;47274;43.054;25.146;2023-07-09T08:07:18;95976.06;;;25.15;55.78
61408;BME280;47274;43.054;25.146;2023-07-09T08:09:47;95908.63;;;24.85;56.32
61408;BME280;47274;43.054;25.146;2023-07-09T08:12:14;95905.81;;;25.10;55.89
61408;BME280;47274;43.054;25.146;2023-07-09T08:14:41;95967.41;;;25.85;56.21
61408;BME280;47274;43.054;25.146;2023-07-09T08:17:17;95918.13;;;25.80;55.69
61408;BME280;47274;43.054;25.146;2023-07-09T08:19:45;95917.66;;;25.71;51.97
61408;BME280;47274;43.054;25.146;2023-07-09T08:22:11;95916.63;;;25.84;55.87
61408;BME280;47274;43.054;25.146;2023-07-09T08:24:38;95911.06;;;26.09;54.09
61408;BME280;47274;43.054;25.146;2023-07-09T08:27:06;95894.56;;;25.73;52.82
61408;BME280;47274;43.054;25.146;2023-07-09T08:29:33;95883.75;;;25.46;55.92
61408;BME280;47274;43.054;25.146;2023-07-09T08:31:59;95928.84;;;25.90;52.95
61408;BME280;47274;43.054;25.146;2023-07-09T08:34:29;95932.38;;;25.96;53.29
61408;BME280;47274;43.054;25.146;2023-07-09T08:37:00;95913.94;;;25.44;54.10
61408;BME280;47274;43.054;25.146;2023-07-09T08:39:29;95931.19;;;26.15;54.01
61408;BME280;47274;43.054;25.146;2023-07-09T08:42:03;95967.06;;;26.79;53.31
61408;BME280;47274;43.054;25.146;2023-07-09T08:50:09;95966.19;;;26.04;54.23
61408;BME280;47274;43.054;25.146;2023-07-09T08:52:45;95905.56;;;26.39;52.77
61408;BME280;47274;43.054;25.146;2023-07-09T08:55:17;95916.72;;;26.92;54.83
61408;BME280;47274;43.054;25.146;2023-07-09T08:57:47;95937.81;;;27.26;48.96
61408;BME280;47274;43.054;25.146;2023-07-09T09:00:28;95942.84;;;27.27;53.30
61408;BME280;47274;43.054;25.146;2023-07-09T09:02:58;95975.81;;;27.47;53.08
61408;BME280;47274;43.054;25.146;2023-07-09T09:05:25;95953.63;;;27.64;52.54
61408;BME280;47274;43.054;25.146;2023-07-09T09:10:49;95965.41;;;26.89;50.44
61408;BME280;47274;43.054;25.146;2023-07-09T09:13:27;95963.06;;;27.22;48.72
61408;BME280;47274;43.054;25.146;2023-07-09T09:15:56;95977.06;;;27.44;48.90
61408;BME280;47274;43.054;25.146;2023-07-09T09:18:31;95975.41;;;27.38;46.59
61408;BME280;47274;43.054;25.146;2023-07-09T09:21:14;95950.38;;;27.19;47.75
61408;BME280;47274;43.054;25.146;2023-07-09T09:23:49;95897.66;;;26.85;45.59
61408;BME280;47274;43.054;25.146;2023-07-09T09:26:28;95974.06;;;27.52;47.80
61408;BME280;47274;43.054;25.146;2023-07-09T09:28:56;95958.91;;;27.26;46.92
61408;BME280;47274;43.054;25.146;2023-07-09T09:31:24;95985.94;;;27.38;47.38
61408;BME280;47274;43.054;25.146;2023-07-09T09:33:52;95940.06;;;27.73;47.42
61408;BME280;47274;43.054;25.146;2023-07-09T09:36:25;95980.56;;;28.05;46.63
61408;BME280;47274;43.054;25.146;2023-07-09T09:38:52;95968.91;;;28.01;47.19
61408;BME280;47274;43.054;25.146;2023-07-09T09:41:23;95962.97;;;27.33;45.14
61408;BME280;47274;43.054;25.146;2023-07-09T09:43:53;95966.16;;;27.35;47.60
61408;BME280;47274;43.054;25.146;2023-07-09T09:46:23;95980.19;;;27.58;46.72
61408;BME280;47274;43.054;25.146;2023-07-09T09:48:59;95984.59;;;27.52;44.61
61408;BME280;47274;43.054;25.146;2023-07-09T09:51:27;95955.16;;;27.22;45.44
61408;BME280;47274;43.054;25.146;2023-07-09T09:54:01;95965.59;;;27.72;44.21
61408;BME280;47274;43.054;25.146;2023-07-09T09:56:29;95968.97;;;27.84;44.67
61408;BME280;47274;43.054;25.146;2023-07-09T09:58:59;95941.13;;;27.94;45.52
61408;BME280;47274;43.054;25.146;2023-07-09T10:01:29;95973.75;;;28.31;44.07
61408;BME280;47274;43.054;25.146;2023-07-09T10:03:58;95984.06;;;28.11;46.68
61408;BME280;47274;43.054;25.146;2023-07-09T10:06:36;95963.69;;;28.28;42.37
61408;BME280;47274;43.054;25.146;2023-07-09T10:12:34;95981.44;;;28.55;45.33
61408;BME280;47274;43.054;25.146;2023-07-09T10:28:25;95972.97;;;28.85;43.01
61408;BME280;47274;43.054;25.146;2023-07-09T10:31:00;95990.63;;;28.08;44.98
61408;BME280;47274;43.054;25.146;2023-07-09T10:39:42;95951.38;;;29.20;41.65
61408;BME280;47274;43.054;25.146;2023-07-09T10:42:17;95970.53;;;29.80;42.87
61408;BME280;47274;43.054;25.146;2023-07-09T10:44:51;95949.81;;;29.29;39.87
61408;BME280;47274;43.054;25.146;2023-07-09T10:47:32;95965.72;;;29.72;40.05
61408;BME280;47274;43.054;25.146;2023-07-09T10:50:02;95968.66;;;29.75;42.10
61408;BME280;47274;43.054;25.146;2023-07-09T10:52:33;95932.84;;;29.58;39.82
61408;BME280;47274;43.054;25.146;2023-07-09T10:57:54;95964.75;;;29.46;41.48
61408;BME280;47274;43.054;25.146;2023-07-09T11:00:32;95966.53;;;29.35;43.02
61408;BME280;47274;43.054;25.146;2023-07-09T11:03:04;95980.38;;;29.10;39.09
61408;BME280;47274;43.054;25.146;2023-07-09T11:05:34;95939.94;;;28.83;41.12
61408;BME280;47274;43.054;25.146;2023-07-09T11:08:15;95961.19;;;28.66;38.75
61408;BME280;47274;43.054;25.146;2023-07-09T11:10:50;95969.09;;;28.93;40.63
61408;BME280;47274;43.054;25.146;2023-07-09T11:13:25;95961.69;;;28.63;41.06
61408;BME280;47274;43.054;25.146;2023-07-09T11:15:54;95934.88;;;28.76;43.08
61408;BME280;47274;43.054;25.146;2023-07-09T11:18:26;95919.66;;;29.20;40.45
61408;BME280;47274;43.054;25.146;2023-07-09T11:21:06;95927.84;;;28.60;39.26
61408;BME280;47274;43.054;25.146;2023-07-09T11:23:53;95960.31;;;28.87;41.37
61408;BME280;47274;43.054;25.146;2023-07-09T11:29:05;95961.38;;;29.18;38.39
61408;BME280;47274;43.054;25.146;2023-07-09T11:31:39;95959.81;;;29.22;39.04
61408;BME280;47274;43.054;25.146;2023-07-09T11:42:01;95964.91;;;29.29;40.96
61408;BME280;47274;43.054;25.146;2023-07-09T11:44:29;95965.53;;;29.41;40.55
61408;BME280;47274;43.054;25.146;2023-07-09T11:50:27;95965.75;;;29.02;39.91
61408;BME280;47274;43.054;25.146;2023-07-09T11:52:58;95959.66;;;28.48;40.60
61408;BME280;47274;43.054;25.146;2023-07-09T11:55:39;95956.72;;;28.44;41.27
61408;BME280;47274;43.054;25.146;2023-07-09T11:58:13;95955.84;;;28.61;41.50
61408;BME280;47274;43.054;25.146;2023-07-09T12:03:23;95920.13;;;27.82;39.92
61408;BME280;47274;43.054;25.146;2023-07-09T12:06:01;95956.09;;;27.88;41.92
61408;BME280;47274;43.054;25.146;2023-07-09T12:08:40;95924.09;;;28.06;43.29
61408;BME280;47274;43.054;25.146;2023-07-09T12:11:27;95953.41;;;28.54;42.77
61408;BME280;47274;43.054;25.146;2023-07-09T12:13:54;95932.00;;;28.28;40.80
61408;BME280;47274;43.054;25.146;2023-07-09T12:16:29;95935.81;;;28.65;42.25
61408;BME280;47274;43.054;25.146;2023-07-09T12:18:56;95951.63;;;28.92;42.20
61408;BME280;47274;43.054;25.146;2023-07-09T12:21:23;95901.66;;;28.53;40.41
61408;BME280;47274;43.054;25.146;2023-07-09T12:23:50;95902.50;;;28.58;42.72
61408;BME280;47274;43.054;25.146;2023-07-09T12:26:19;95937.56;;;27.83;40.84
61408;BME280;47274;43.054;25.146;2023-07-09T12:28:56;95916.81;;;27.14;42.80
61408;BME280;47274;43.054;25.146;2023-07-09T12:31:29;95941.69;;;27.06;45.35
61408;BME280;47274;43.054;25.146;2023-07-09T12:33:57;95931.25;;;27.67;44.93
61408;BME280;47274;43.054;25.146;2023-07-09T12:36:25;95894.09;;;27.69;44.60
61408;BME280;47274;43.054;25.146;2023-07-09T12:39:11;95887.97;;;27.63;42.65
61408;BME280;47274;43.054;25.146;2023-07-09T12:41:45;95916.63;;;27.98;42.97
61408;BME280;47274;43.054;25.146;2023-07-09T12:44:21;95884.09;;;27.49;42.27
61408;BME280;47274;43.054;25.146;2023-07-09T12:46:53;95898.84;;;27.67;41.82
61408;BME280;47274;43.054;25.146;2023-07-09T12:49:27;95878.22;;;27.63;42.12
61408;BME280;47274;43.054;25.146;2023-07-09T12:51:58;95908.88;;;28.14;42.81
61408;BME280;47274;43.054;25.146;2023-07-09T12:54:28;95884.50;;;28.01;42.52
61408;BME280;47274;43.054;25.146;2023-07-09T12:56:55;95910.56;;;27.98;42.73
61408;BME280;47274;43.054;25.146;2023-07-09T12:59:26;95875.47;;;27.97;43.13
61408;BME280;47274;43.054;25.146;2023-07-09T13:02:01;95912.16;;;28.21;40.11
61408;BME280;47274;43.054;25.146;2023-07-09T13:04:32;95905.31;;;27.59;41.93
61408;BME280;47274;43.054;25.146;2023-07-09T13:06:59;95906.47;;;27.68;44.06
61408;BME280;47274;43.054;25.146;2023-07-09T13:09:25;95910.72;;;27.69;43.47
61408;BME280;47274;43.054;25.146;2023-07-09T13:11:53;95909.78;;;27.97;43.42
61408;BME280;47274;43.054;25.146;2023-07-09T13:14:25;95889.88;;;28.11;42.93
61408;BME280;47274;43.054;25.146;2023-07-09T13:17:05;95884.25;;;27.81;43.23
61408;BME280;47274;43.054;25.146;2023-07-09T13:19:31;95869.72;;;27.78;43.52
61408;BME280;47274;43.054;25.146;2023-07-09T13:21:57;95876.91;;;28.10;43.99
61408;BME280;47274;43.054;25.146;2023-07-09T13:24:25;95852.09;;;27.40;42.74
61408;BME280;47274;43.054;25.146;2023-07-09T13:26:51;95880.34;;;27.23;43.13
61408;BME280;47274;43.054;25.146;2023-07-09T13:29:19;95875.78;;;26.84;44.72
61408;BME280;47274;43.054;25.146;2023-07-09T13:31:46;95886.88;;;27.03;44.25
61408;BME280;47274;43.054;25.146;2023-07-09T13:34:20;95905.28;;;26.69;43.81
61408;BME280;47274;43.054;25.146;2023-07-09T13:36:47;95896.41;;;26.13;44.99
61408;BME280;47274;43.054;25.146;2023-07-09T13:39:14;95856.50;;;25.76;45.60
61408;BME280;47274;43.054;25.146;2023-07-09T13:41:45;95912.84;;;26.49;46.41
61408;BME280;47274;43.054;25.146;2023-07-09T13:44:26;95903.00;;;26.90;44.50
61408;BME280;47274;43.054;25.146;2023-07-09T13:46:54;95921.91;;;27.21;43.76
61408;BME280;47274;43.054;25.146;2023-07-09T13:49:22;95905.13;;;27.10;42.90
61408;BME280;47274;43.054;25.146;2023-07-09T13:51:52;95921.19;;;26.91;44.13
61408;BME280;47274;43.054;25.146;2023-07-09T13:54:20;95922.28;;;26.62;45.17
61408;BME280;47274;43.054;25.146;2023-07-09T13:56:46;95905.34;;;26.12;46.58
61408;BME280;47274;43.054;25.146;2023-07-09T13:59:21;95918.19;;;25.97;45.63
61408;BME280;47274;43.054;25.146;2023-07-09T14:01:54;95888.28;;;25.74;47.49
61408;BME280;47274;43.054;25.146;2023-07-09T14:04:23;95891.59;;;25.70;46.99
61408;BME280;47274;43.054;25.146;2023-07-09T14:06:49;95914.44;;;25.93;47.51
61408;BME280;47274;43.054;25.146;2023-07-09T14:09:15;95911.88;;;26.10;47.66
61408;BME280;47274;43.054;25.146;2023-07-09T14:11:49;95915.16;;;26.17;47.79
61408;BME280;47274;43.054;25.146;2023-07-09T14:16:43;95921.25;;;26.80;46.46
61408;BME280;47274;43.054;25.146;2023-07-09T14:19:22;95922.34;;;27.12;45.50
61408;BME280;47274;43.054;25.146;2023-07-09T14:21:50;95911.13;;;27.39;44.70
61408;BME280;47274;43.054;25.146;2023-07-09T14:26:49;95898.91;;;26.65;45.93
61408;BME280;47274;43.054;25.146;2023-07-09T14:29:16;95902.34;;;26.66;45.76
61408;BME280;47274;43.054;25.146;2023-07-09T14:31:42;95912.50;;;26.91;44.81